sensor_id;sensor_type;location;lat;lon;timestamp;P1;durP1;ratioP1;P2;durP2;ratioP2
40284;SDS011;25997;50.214;19.354;2022-12-08T00:02:55;13.30;;;11.20;;
40284;SDS011;25997;50.214;19.354;2022-12-08T00:06:00;12.63;;;11.10;;
40284;SDS011;25997;50.214;19.354;2022-12-08T00:09:22;14.90;;;11.38;;
40284;SDS011;25997;50.214;19.354;2022-12-08T00:12:27;15.70;;;11.32;;
40284;SDS011;25997;50.214;19.354;2022-12-08T00:15:30;12.57;;;10.95;;
40284;SDS011;25997;50.214;19.354;2022-12-08T00:18:32;15.13;;;12.27;;
40284;SDS011;25997;50.214;19.354;2022-12-08T00:21:36;13.05;;;11.38;;
40284;SDS011;25997;50.214;19.354;2022-12-08T00:24:39;15.00;;;11.63;;
40284;SDS011;25997;50.214;19.354;2022-12-08T00:27:44;12.68;;;10.82;;
40284;SDS011;25997;50.214;19.354;2022-12-08T00:30:46;12.88;;;11.32;;
40284;SDS011;25997;50.214;19.354;2022-12-08T00:33:49;13.55;;;11.05;;
40284;SDS011;25997;50.214;19.354;2022-12-08T00:36:53;16.25;;;12.75;;
40284;SDS011;25997;50.214;19.354;2022-12-08T00:39:55;13.60;;;11.48;;
40284;SDS011;25997;50.214;19.354;2022-12-08T00:42:58;13.68;;;11.23;;
40284;SDS011;25997;50.214;19.354;2022-12-08T00:46:02;12.13;;;10.82;;
40284;SDS011;25997;50.214;19.354;2022-12-08T00:49:04;12.60;;;10.15;;
40284;SDS011;25997;50.214;19.354;2022-12-08T00:52:09;13.75;;;10.65;;
40284;SDS011;25997;50.214;19.354;2022-12-08T00:55:12;12.43;;;10.38;;
40284;SDS011;25997;50.214;19.354;2022-12-08T00:58:15;14.10;;;11.60;;
40284;SDS011;25997;50.214;19.354;2022-12-08T01:01:17;13.45;;;12.00;;
40284;SDS011;25997;50.214;19.354;2022-12-08T01:04:20;12.23;;;9.82;;
40284;SDS011;25997;50.214;19.354;2022-12-08T01:07:24;10.95;;;9.75;;
40284;SDS011;25997;50.214;19.354;2022-12-08T01:10:26;14.20;;;11.10;;
40284;SDS011;25997;50.214;19.354;2022-12-08T01:13:29;13.15;;;10.93;;
40284;SDS011;25997;50.214;19.354;2022-12-08T01:16:32;11.00;;;9.82;;
40284;SDS011;25997;50.214;19.354;2022-12-08T01:19:36;11.23;;;9.68;;
40284;SDS011;25997;50.214;19.354;2022-12-08T01:22:40;11.85;;;10.55;;
40284;SDS011;25997;50.214;19.354;2022-12-08T01:25:42;12.10;;;10.80;;
40284;SDS011;25997;50.214;19.354;2022-12-08T01:28:45;10.93;;;9.80;;
40284;SDS011;25997;50.214;19.354;2022-12-08T01:31:48;13.73;;;12.27;;
40284;SDS011;25997;50.214;19.354;2022-12-08T01:34:50;11.77;;;10.48;;
40284;SDS011;25997;50.214;19.354;2022-12-08T01:37:54;12.70;;;10.05;;
40284;SDS011;25997;50.214;19.354;2022-12-08T01:40:57;11.45;;;10.05;;
40284;SDS011;25997;50.214;19.354;2022-12-08T01:44:00;12.75;;;9.45;;
40284;SDS011;25997;50.214;19.354;2022-12-08T01:47:04;12.52;;;11.20;;
40284;SDS011;25997;50.214;19.354;2022-12-08T01:50:07;11.85;;;10.65;;
40284;SDS011;25997;50.214;19.354;2022-12-08T01:53:15;11.10;;;10.00;;
40284;SDS011;25997;50.214;19.354;2022-12-08T01:56:22;11.32;;;9.85;;
40284;SDS011;25997;50.214;19.354;2022-12-08T01:59:29;14.55;;;10.52;;
40284;SDS011;25997;50.214;19.354;2022-12-08T02:02:38;12.35;;;9.52;;
40284;SDS011;25997;50.214;19.354;2022-12-08T02:05:48;11.88;;;9.95;;
40284;SDS011;25997;50.214;19.354;2022-12-08T02:08:53;12.82;;;10.63;;
40284;SDS011;25997;50.214;19.354;2022-12-08T02:11:57;14.00;;;10.18;;
40284;SDS011;25997;50.214;19.354;2022-12-08T02:15:01;10.90;;;9.80;;
40284;SDS011;25997;50.214;19.354;2022-12-08T02:18:07;10.68;;;9.57;;
40284;SDS011;25997;50.214;19.354;2022-12-08T02:21:25;12.07;;;10.43;;
40284;SDS011;25997;50.214;19.354;2022-12-08T02:24:36;11.43;;;9.20;;
40284;SDS011;25997;50.214;19.354;2022-12-08T02:27:42;11.70;;;9.85;;
40284;SDS011;25997;50.214;19.354;2022-12-08T02:30:56;11.30;;;10.10;;
40284;SDS011;25997;50.214;19.354;2022-12-08T02:34:13;14.27;;;11.25;;
40284;SDS011;25997;50.214;19.354;2022-12-08T02:37:22;10.63;;;9.52;;
40284;SDS011;25997;50.214;19.354;2022-12-08T02:40:29;12.68;;;10.68;;
40284;SDS011;25997;50.214;19.354;2022-12-08T02:43:38;14.07;;;11.00;;
40284;SDS011;25997;50.214;19.354;2022-12-08T02:46:53;12.45;;;10.05;;
40284;SDS011;25997;50.214;19.354;2022-12-08T02:50:00;11.48;;;10.27;;
40284;SDS011;25997;50.214;19.354;2022-12-08T02:53:03;11.52;;;10.27;;
40284;SDS011;25997;50.214;19.354;2022-12-08T02:56:09;11.88;;;10.10;;
40284;SDS011;25997;50.214;19.354;2022-12-08T02:59:23;11.35;;;10.15;;
40284;SDS011;25997;50.214;19.354;2022-12-08T03:02:41;14.10;;;11.57;;
40284;SDS011;25997;50.214;19.354;2022-12-08T03:05:56;12.77;;;9.68;;
40284;SDS011;25997;50.214;19.354;2022-12-08T03:09:07;10.25;;;9.13;;
40284;SDS011;25997;50.214;19.354;2022-12-08T03:12:16;11.63;;;10.53;;
40284;SDS011;25997;50.214;19.354;2022-12-08T03:15:21;11.25;;;10.05;;
40284;SDS011;25997;50.214;19.354;2022-12-08T03:18:26;11.25;;;9.90;;
40284;SDS011;25997;50.214;19.354;2022-12-08T03:21:33;10.77;;;9.68;;
40284;SDS011;25997;50.214;19.354;2022-12-08T03:24:37;11.90;;;10.70;;
40284;SDS011;25997;50.214;19.354;2022-12-08T03:27:42;13.50;;;11.40;;
40284;SDS011;25997;50.214;19.354;2022-12-08T03:30:45;12.20;;;10.57;;
40284;SDS011;25997;50.214;19.354;2022-12-08T03:33:51;12.77;;;11.18;;
40284;SDS011;25997;50.214;19.354;2022-12-08T03:37:00;13.57;;;10.63;;
40284;SDS011;25997;50.214;19.354;2022-12-08T03:40:03;14.48;;;12.95;;
40284;SDS011;25997;50.214;19.354;2022-12-08T03:43:07;28.23;;;23.90;;
40284;SDS011;25997;50.214;19.354;2022-12-08T03:46:10;16.77;;;13.57;;
40284;SDS011;25997;50.214;19.354;2022-12-08T03:49:12;19.67;;;15.73;;
40284;SDS011;25997;50.214;19.354;2022-12-08T03:52:16;12.05;;;10.68;;
40284;SDS011;25997;50.214;19.354;2022-12-08T03:55:19;18.02;;;15.95;;
40284;SDS011;25997;50.214;19.354;2022-12-08T03:58:22;17.05;;;14.38;;
40284;SDS011;25997;50.214;19.354;2022-12-08T04:01:24;18.25;;;14.57;;
40284;SDS011;25997;50.214;19.354;2022-12-08T04:04:27;12.48;;;10.75;;
40284;SDS011;25997;50.214;19.354;2022-12-08T04:07:32;12.73;;;9.77;;
40284;SDS011;25997;50.214;19.354;2022-12-08T04:10:34;11.02;;;9.70;;
40284;SDS011;25997;50.214;19.354;2022-12-08T04:13:37;10.88;;;9.68;;
40284;SDS011;25997;50.214;19.354;2022-12-08T04:16:40;10.50;;;9.38;;
40284;SDS011;25997;50.214;19.354;2022-12-08T04:19:43;12.90;;;10.65;;
40284;SDS011;25997;50.214;19.354;2022-12-08T04:22:47;11.13;;;9.98;;
40284;SDS011;25997;50.214;19.354;2022-12-08T04:25:49;12.43;;;10.35;;
40284;SDS011;25997;50.214;19.354;2022-12-08T04:28:52;12.23;;;10.88;;
40284;SDS011;25997;50.214;19.354;2022-12-08T04:31:54;12.20;;;10.90;;
40284;SDS011;25997;50.214;19.354;2022-12-08T04:34:57;10.88;;;9.52;;
40284;SDS011;25997;50.214;19.354;2022-12-08T04:38:01;11.38;;;10.15;;
40284;SDS011;25997;50.214;19.354;2022-12-08T04:41:04;12.30;;;10.95;;
40284;SDS011;25997;50.214;19.354;2022-12-08T04:44:06;11.38;;;10.07;;
40284;SDS011;25997;50.214;19.354;2022-12-08T04:47:09;12.40;;;11.10;;
40284;SDS011;25997;50.214;19.354;2022-12-08T04:50:11;13.55;;;11.48;;
40284;SDS011;25997;50.214;19.354;2022-12-08T04:53:15;13.13;;;11.30;;
40284;SDS011;25997;50.214;19.354;2022-12-08T04:56:19;15.82;;;13.57;;
40284;SDS011;25997;50.214;19.354;2022-12-08T04:59:21;58.13;;;49.30;;
40284;SDS011;25997;50.214;19.354;2022-12-08T05:02:24;51.42;;;44.35;;
40284;SDS011;25997;50.214;19.354;2022-12-08T05:05:27;72.57;;;65.90;;
40284;SDS011;25997;50.214;19.354;2022-12-08T05:08:31;44.20;;;39.85;;
40284;SDS011;25997;50.214;19.354;2022-12-08T05:11:33;23.85;;;21.40;;
40284;SDS011;25997;50.214;19.354;2022-12-08T05:14:35;26.92;;;23.67;;
40284;SDS011;25997;50.214;19.354;2022-12-08T05:17:38;18.23;;;16.30;;
40284;SDS011;25997;50.214;19.354;2022-12-08T05:20:40;18.13;;;16.23;;
40284;SDS011;25997;50.214;19.354;2022-12-08T05:23:44;17.10;;;15.30;;
40284;SDS011;25997;50.214;19.354;2022-12-08T05:26:47;42.15;;;37.78;;
40284;SDS011;25997;50.214;19.354;2022-12-08T05:29:49;37.00;;;33.17;;
40284;SDS011;25997;50.214;19.354;2022-12-08T05:32:52;44.47;;;35.88;;
40284;SDS011;25997;50.214;19.354;2022-12-08T05:35:54;41.53;;;37.08;;
40284;SDS011;25997;50.214;19.354;2022-12-08T05:38:58;18.73;;;16.83;;
40284;SDS011;25997;50.214;19.354;2022-12-08T05:42:01;18.10;;;16.23;;
40284;SDS011;25997;50.214;19.354;2022-12-08T05:45:03;16.48;;;14.77;;
40284;SDS011;25997;50.214;19.354;2022-12-08T05:48:06;16.20;;;13.77;;
40284;SDS011;25997;50.214;19.354;2022-12-08T05:51:12;16.38;;;13.25;;
40284;SDS011;25997;50.214;19.354;2022-12-08T05:54:19;15.23;;;12.77;;
40284;SDS011;25997;50.214;19.354;2022-12-08T05:57:22;58.00;;;37.55;;
40284;SDS011;25997;50.214;19.354;2022-12-08T06:00:24;50.80;;;35.50;;
40284;SDS011;25997;50.214;19.354;2022-12-08T06:03:27;20.52;;;16.70;;
40284;SDS011;25997;50.214;19.354;2022-12-08T06:06:29;32.13;;;28.65;;
40284;SDS011;25997;50.214;19.354;2022-12-08T06:09:36;18.20;;;16.38;;
40284;SDS011;25997;50.214;19.354;2022-12-08T06:12:39;14.20;;;11.93;;
40284;SDS011;25997;50.214;19.354;2022-12-08T06:15:41;14.38;;;12.90;;
40284;SDS011;25997;50.214;19.354;2022-12-08T06:18:44;13.02;;;11.73;;
40284;SDS011;25997;50.214;19.354;2022-12-08T06:21:47;15.05;;;13.55;;
40284;SDS011;25997;50.214;19.354;2022-12-08T06:24:50;13.43;;;12.00;;
40284;SDS011;25997;50.214;19.354;2022-12-08T06:27:53;18.42;;;15.45;;
40284;SDS011;25997;50.214;19.354;2022-12-08T06:30:55;27.77;;;21.70;;
40284;SDS011;25997;50.214;19.354;2022-12-08T06:33:58;31.13;;;26.33;;
40284;SDS011;25997;50.214;19.354;2022-12-08T06:37:00;46.40;;;34.78;;
40284;SDS011;25997;50.214;19.354;2022-12-08T06:40:05;23.20;;;20.70;;
40284;SDS011;25997;50.214;19.354;2022-12-08T06:43:08;16.23;;;14.50;;
40284;SDS011;25997;50.214;19.354;2022-12-08T06:46:12;15.32;;;12.18;;
40284;SDS011;25997;50.214;19.354;2022-12-08T06:49:15;13.38;;;11.88;;
40284;SDS011;25997;50.214;19.354;2022-12-08T06:52:18;12.50;;;10.13;;
40284;SDS011;25997;50.214;19.354;2022-12-08T06:55:22;14.05;;;12.45;;
40284;SDS011;25997;50.214;19.354;2022-12-08T06:58:24;12.90;;;10.98;;
40284;SDS011;25997;50.214;19.354;2022-12-08T07:01:26;11.95;;;10.63;;
40284;SDS011;25997;50.214;19.354;2022-12-08T07:04:29;15.07;;;10.82;;
40284;SDS011;25997;50.214;19.354;2022-12-08T07:07:31;14.05;;;10.90;;
40284;SDS011;25997;50.214;19.354;2022-12-08T07:10:35;14.63;;;10.75;;
40284;SDS011;25997;50.214;19.354;2022-12-08T07:13:38;11.48;;;10.27;;
40284;SDS011;25997;50.214;19.354;2022-12-08T07:16:41;15.32;;;12.55;;
40284;SDS011;25997;50.214;19.354;2022-12-08T07:19:43;14.55;;;12.20;;
40284;SDS011;25997;50.214;19.354;2022-12-08T07:22:49;16.58;;;12.60;;
40284;SDS011;25997;50.214;19.354;2022-12-08T07:25:53;23.02;;;20.35;;
40284;SDS011;25997;50.214;19.354;2022-12-08T07:28:55;16.30;;;13.75;;
40284;SDS011;25997;50.214;19.354;2022-12-08T07:31:58;17.23;;;12.85;;
40284;SDS011;25997;50.214;19.354;2022-12-08T07:35:00;21.48;;;14.55;;
40284;SDS011;25997;50.214;19.354;2022-12-08T07:38:03;27.25;;;17.88;;
40284;SDS011;25997;50.214;19.354;2022-12-08T07:41:09;29.63;;;19.95;;
40284;SDS011;25997;50.214;19.354;2022-12-08T07:44:13;35.30;;;22.10;;
40284;SDS011;25997;50.214;19.354;2022-12-08T07:47:15;60.53;;;37.25;;
40284;SDS011;25997;50.214;19.354;2022-12-08T07:50:18;32.38;;;23.48;;
40284;SDS011;25997;50.214;19.354;2022-12-08T07:53:20;46.38;;;30.77;;
40284;SDS011;25997;50.214;19.354;2022-12-08T07:56:24;46.97;;;32.63;;
40284;SDS011;25997;50.214;19.354;2022-12-08T07:59:27;50.03;;;37.05;;
40284;SDS011;25997;50.214;19.354;2022-12-08T08:02:29;51.83;;;37.22;;
40284;SDS011;25997;50.214;19.354;2022-12-08T08:05:32;69.57;;;56.38;;
40284;SDS011;25997;50.214;19.354;2022-12-08T08:08:34;43.88;;;39.45;;
40284;SDS011;25997;50.214;19.354;2022-12-08T08:11:38;42.95;;;38.28;;
40284;SDS011;25997;50.214;19.354;2022-12-08T08:14:41;34.00;;;29.60;;
40284;SDS011;25997;50.214;19.354;2022-12-08T08:17:43;21.55;;;18.70;;
40284;SDS011;25997;50.214;19.354;2022-12-08T08:20:49;25.52;;;21.52;;
40284;SDS011;25997;50.214;19.354;2022-12-08T08:23:52;23.25;;;18.80;;
40284;SDS011;25997;50.214;19.354;2022-12-08T08:26:56;22.70;;;18.55;;
40284;SDS011;25997;50.214;19.354;2022-12-08T08:29:58;28.73;;;19.85;;
40284;SDS011;25997;50.214;19.354;2022-12-08T08:33:01;24.50;;;19.67;;
40284;SDS011;25997;50.214;19.354;2022-12-08T08:36:05;23.83;;;20.80;;
40284;SDS011;25997;50.214;19.354;2022-12-08T08:39:08;25.50;;;21.45;;
40284;SDS011;25997;50.214;19.354;2022-12-08T08:42:12;23.88;;;20.25;;
40284;SDS011;25997;50.214;19.354;2022-12-08T08:45:14;26.98;;;21.67;;
40284;SDS011;25997;50.214;19.354;2022-12-08T08:48:17;22.15;;;19.48;;
40284;SDS011;25997;50.214;19.354;2022-12-08T08:51:19;24.52;;;20.38;;
40284;SDS011;25997;50.214;19.354;2022-12-08T08:54:22;24.33;;;19.90;;
40284;SDS011;25997;50.214;19.354;2022-12-08T08:57:26;25.52;;;20.92;;
40284;SDS011;25997;50.214;19.354;2022-12-08T09:00:28;22.38;;;17.50;;
40284;SDS011;25997;50.214;19.354;2022-12-08T09:03:31;21.40;;;17.10;;
40284;SDS011;25997;50.214;19.354;2022-12-08T09:06:34;20.63;;;17.13;;
40284;SDS011;25997;50.214;19.354;2022-12-08T09:09:37;21.25;;;17.48;;
40284;SDS011;25997;50.214;19.354;2022-12-08T09:12:41;23.10;;;18.38;;
40284;SDS011;25997;50.214;19.354;2022-12-08T09:15:43;21.85;;;16.63;;
40284;SDS011;25997;50.214;19.354;2022-12-08T09:18:46;18.95;;;15.20;;
40284;SDS011;25997;50.214;19.354;2022-12-08T09:21:49;15.40;;;13.80;;
40284;SDS011;25997;50.214;19.354;2022-12-08T09:24:52;20.90;;;15.82;;
40284;SDS011;25997;50.214;19.354;2022-12-08T09:27:55;15.55;;;13.85;;
40284;SDS011;25997;50.214;19.354;2022-12-08T09:30:58;15.13;;;11.88;;
40284;SDS011;25997;50.214;19.354;2022-12-08T09:34:02;15.98;;;12.75;;
40284;SDS011;25997;50.214;19.354;2022-12-08T09:37:05;18.15;;;14.73;;
40284;SDS011;25997;50.214;19.354;2022-12-08T09:40:09;15.85;;;13.23;;
40284;SDS011;25997;50.214;19.354;2022-12-08T09:43:22;15.35;;;12.55;;
40284;SDS011;25997;50.214;19.354;2022-12-08T09:46:41;15.30;;;13.63;;
40284;SDS011;25997;50.214;19.354;2022-12-08T09:49:46;20.98;;;17.48;;
40284;SDS011;25997;50.214;19.354;2022-12-08T09:52:56;24.88;;;16.58;;
40284;SDS011;25997;50.214;19.354;2022-12-08T09:56:03;31.52;;;23.60;;
40284;SDS011;25997;50.214;19.354;2022-12-08T09:59:15;27.35;;;20.90;;
40284;SDS011;25997;50.214;19.354;2022-12-08T10:02:25;23.02;;;18.75;;
40284;SDS011;25997;50.214;19.354;2022-12-08T10:05:31;31.05;;;20.05;;
40284;SDS011;25997;50.214;19.354;2022-12-08T10:08:42;39.13;;;26.17;;
40284;SDS011;25997;50.214;19.354;2022-12-08T10:11:54;43.17;;;29.70;;
40284;SDS011;25997;50.214;19.354;2022-12-08T10:15:06;20.33;;;17.05;;
40284;SDS011;25997;50.214;19.354;2022-12-08T10:18:32;26.80;;;20.55;;
40284;SDS011;25997;50.214;19.354;2022-12-08T10:21:37;24.08;;;18.33;;
40284;SDS011;25997;50.214;19.354;2022-12-08T10:24:42;24.33;;;18.83;;
40284;SDS011;25997;50.214;19.354;2022-12-08T10:27:54;25.42;;;21.85;;
40284;SDS011;25997;50.214;19.354;2022-12-08T10:30:59;21.63;;;18.30;;
40284;SDS011;25997;50.214;19.354;2022-12-08T10:34:09;27.10;;;20.60;;
40284;SDS011;25997;50.214;19.354;2022-12-08T10:37:16;57.63;;;37.45;;
40284;SDS011;25997;50.214;19.354;2022-12-08T10:40:19;29.88;;;22.08;;
40284;SDS011;25997;50.214;19.354;2022-12-08T10:43:23;27.70;;;24.70;;
40284;SDS011;25997;50.214;19.354;2022-12-08T10:46:29;29.63;;;26.55;;
40284;SDS011;25997;50.214;19.354;2022-12-08T10:49:33;24.08;;;21.42;;
40284;SDS011;25997;50.214;19.354;2022-12-08T10:52:39;24.70;;;21.90;;
40284;SDS011;25997;50.214;19.354;2022-12-08T10:55:42;23.63;;;20.15;;
40284;SDS011;25997;50.214;19.354;2022-12-08T10:58:46;27.13;;;20.20;;
40284;SDS011;25997;50.214;19.354;2022-12-08T11:01:50;28.45;;;25.13;;
40284;SDS011;25997;50.214;19.354;2022-12-08T11:04:55;30.33;;;23.40;;
40284;SDS011;25997;50.214;19.354;2022-12-08T11:08:00;33.92;;;27.95;;
40284;SDS011;25997;50.214;19.354;2022-12-08T11:11:03;33.30;;;26.63;;
40284;SDS011;25997;50.214;19.354;2022-12-08T11:14:06;41.92;;;32.00;;
40284;SDS011;25997;50.214;19.354;2022-12-08T11:17:11;37.17;;;28.98;;
40284;SDS011;25997;50.214;19.354;2022-12-08T11:20:20;28.70;;;21.35;;
40284;SDS011;25997;50.214;19.354;2022-12-08T11:23:24;35.75;;;30.98;;
40284;SDS011;25997;50.214;19.354;2022-12-08T11:26:28;23.05;;;20.73;;
40284;SDS011;25997;50.214;19.354;2022-12-08T11:29:33;18.38;;;15.02;;
40284;SDS011;25997;50.214;19.354;2022-12-08T11:32:38;22.75;;;20.45;;
40284;SDS011;25997;50.214;19.354;2022-12-08T11:35:45;25.85;;;22.35;;
40284;SDS011;25997;50.214;19.354;2022-12-08T11:38:54;16.40;;;12.95;;
40284;SDS011;25997;50.214;19.354;2022-12-08T11:41:58;14.95;;;13.35;;
40284;SDS011;25997;50.214;19.354;2022-12-08T11:45:05;21.80;;;19.25;;
40284;SDS011;25997;50.214;19.354;2022-12-08T11:48:15;15.97;;;10.50;;
40284;SDS011;25997;50.214;19.354;2022-12-08T11:51:21;17.05;;;13.88;;
40284;SDS011;25997;50.214;19.354;2022-12-08T11:57:33;14.38;;;12.48;;
40284;SDS011;25997;50.214;19.354;2022-12-08T12:00:36;16.20;;;14.07;;
40284;SDS011;25997;50.214;19.354;2022-12-08T12:03:40;51.25;;;34.78;;
40284;SDS011;25997;50.214;19.354;2022-12-08T12:06:54;29.70;;;21.70;;
40284;SDS011;25997;50.214;19.354;2022-12-08T12:10:26;41.70;;;26.95;;
40284;SDS011;25997;50.214;19.354;2022-12-08T12:13:48;14.45;;;11.02;;
40284;SDS011;25997;50.214;19.354;2022-12-08T12:17:03;23.52;;;17.45;;
40284;SDS011;25997;50.214;19.354;2022-12-08T12:20:10;11.52;;;10.00;;
40284;SDS011;25997;50.214;19.354;2022-12-08T12:23:18;11.70;;;8.87;;
40284;SDS011;25997;50.214;19.354;2022-12-08T12:26:24;11.15;;;9.32;;
40284;SDS011;25997;50.214;19.354;2022-12-08T12:29:29;13.35;;;11.30;;
40284;SDS011;25997;50.214;19.354;2022-12-08T12:32:43;10.07;;;8.25;;
40284;SDS011;25997;50.214;19.354;2022-12-08T12:35:51;11.82;;;10.57;;
40284;SDS011;25997;50.214;19.354;2022-12-08T12:38:57;21.48;;;13.90;;
40284;SDS011;25997;50.214;19.354;2022-12-08T12:42:04;27.55;;;20.08;;
40284;SDS011;25997;50.214;19.354;2022-12-08T12:45:11;18.73;;;16.80;;
40284;SDS011;25997;50.214;19.354;2022-12-08T12:48:26;11.18;;;9.60;;
40284;SDS011;25997;50.214;19.354;2022-12-08T12:51:42;21.88;;;19.52;;
40284;SDS011;25997;50.214;19.354;2022-12-08T12:58:36;15.82;;;14.13;;
40284;SDS011;25997;50.214;19.354;2022-12-08T13:01:46;43.70;;;39.13;;
40284;SDS011;25997;50.214;19.354;2022-12-08T13:04:57;14.20;;;12.55;;
40284;SDS011;25997;50.214;19.354;2022-12-08T13:08:05;10.02;;;8.50;;
40284;SDS011;25997;50.214;19.354;2022-12-08T13:11:17;13.52;;;10.90;;
40284;SDS011;25997;50.214;19.354;2022-12-08T13:14:25;21.98;;;17.95;;
40284;SDS011;25997;50.214;19.354;2022-12-08T13:17:30;19.65;;;17.73;;
40284;SDS011;25997;50.214;19.354;2022-12-08T13:20:39;14.95;;;13.43;;
40284;SDS011;25997;50.214;19.354;2022-12-08T13:23:48;13.65;;;12.35;;
40284;SDS011;25997;50.214;19.354;2022-12-08T13:30:41;13.55;;;12.15;;
40284;SDS011;25997;50.214;19.354;2022-12-08T13:33:45;22.38;;;19.83;;
40284;SDS011;25997;50.214;19.354;2022-12-08T13:36:54;20.65;;;14.52;;
40284;SDS011;25997;50.214;19.354;2022-12-08T13:40:06;24.08;;;21.58;;
40284;SDS011;25997;50.214;19.354;2022-12-08T13:43:14;33.47;;;28.23;;
40284;SDS011;25997;50.214;19.354;2022-12-08T13:46:22;12.95;;;10.27;;
40284;SDS011;25997;50.214;19.354;2022-12-08T13:49:35;48.72;;;33.25;;
40284;SDS011;25997;50.214;19.354;2022-12-08T13:52:45;311.02;;;221.40;;
40284;SDS011;25997;50.214;19.354;2022-12-08T13:55:55;44.83;;;39.30;;
40284;SDS011;25997;50.214;19.354;2022-12-08T13:59:07;29.35;;;26.17;;
40284;SDS011;25997;50.214;19.354;2022-12-08T14:02:25;23.25;;;20.40;;
40284;SDS011;25997;50.214;19.354;2022-12-08T14:05:37;13.70;;;11.55;;
40284;SDS011;25997;50.214;19.354;2022-12-08T14:08:41;25.08;;;20.77;;
40284;SDS011;25997;50.214;19.354;2022-12-08T14:11:50;23.98;;;21.48;;
40284;SDS011;25997;50.214;19.354;2022-12-08T14:14:56;21.40;;;19.20;;
40284;SDS011;25997;50.214;19.354;2022-12-08T14:18:02;25.58;;;19.73;;
40284;SDS011;25997;50.214;19.354;2022-12-08T14:21:05;60.53;;;39.53;;
40284;SDS011;25997;50.214;19.354;2022-12-08T14:24:13;76.25;;;47.38;;
40284;SDS011;25997;50.214;19.354;2022-12-08T14:27:17;45.95;;;41.20;;
40284;SDS011;25997;50.214;19.354;2022-12-08T14:30:23;46.08;;;38.58;;
40284;SDS011;25997;50.214;19.354;2022-12-08T14:33:30;46.75;;;37.50;;
40284;SDS011;25997;50.214;19.354;2022-12-08T14:36:32;30.67;;;27.10;;
40284;SDS011;25997;50.214;19.354;2022-12-08T14:39:35;21.13;;;18.20;;
40284;SDS011;25997;50.214;19.354;2022-12-08T14:42:43;23.88;;;20.35;;
40284;SDS011;25997;50.214;19.354;2022-12-08T14:45:48;41.05;;;32.95;;
40284;SDS011;25997;50.214;19.354;2022-12-08T14:48:52;39.55;;;33.28;;
40284;SDS011;25997;50.214;19.354;2022-12-08T14:51:56;43.60;;;34.25;;
40284;SDS011;25997;50.214;19.354;2022-12-08T14:55:01;37.72;;;31.02;;
40284;SDS011;25997;50.214;19.354;2022-12-08T14:58:05;40.72;;;31.75;;
40284;SDS011;25997;50.214;19.354;2022-12-08T15:01:10;38.80;;;31.48;;
40284;SDS011;25997;50.214;19.354;2022-12-08T15:04:14;41.83;;;34.78;;
40284;SDS011;25997;50.214;19.354;2022-12-08T15:07:22;49.70;;;41.00;;
40284;SDS011;25997;50.214;19.354;2022-12-08T15:10:26;48.53;;;42.38;;
40284;SDS011;25997;50.214;19.354;2022-12-08T15:13:32;59.78;;;53.25;;
40284;SDS011;25997;50.214;19.354;2022-12-08T15:16:37;48.42;;;43.30;;
40284;SDS011;25997;50.214;19.354;2022-12-08T15:19:43;43.78;;;39.15;;
40284;SDS011;25997;50.214;19.354;2022-12-08T15:22:56;45.38;;;40.55;;
40284;SDS011;25997;50.214;19.354;2022-12-08T15:25:59;90.90;;;72.60;;
40284;SDS011;25997;50.214;19.354;2022-12-08T15:29:09;42.92;;;34.55;;
40284;SDS011;25997;50.214;19.354;2022-12-08T15:32:15;29.58;;;24.65;;
40284;SDS011;25997;50.214;19.354;2022-12-08T15:35:19;28.83;;;24.10;;
40284;SDS011;25997;50.214;19.354;2022-12-08T15:38:22;60.60;;;43.50;;
40284;SDS011;25997;50.214;19.354;2022-12-08T15:41:26;37.55;;;27.63;;
40284;SDS011;25997;50.214;19.354;2022-12-08T15:44:30;25.50;;;19.08;;
40284;SDS011;25997;50.214;19.354;2022-12-08T15:47:32;26.13;;;20.60;;
40284;SDS011;25997;50.214;19.354;2022-12-08T15:50:35;24.08;;;20.90;;
40284;SDS011;25997;50.214;19.354;2022-12-08T15:53:38;31.40;;;24.38;;
40284;SDS011;25997;50.214;19.354;2022-12-08T15:56:43;40.45;;;30.27;;
40284;SDS011;25997;50.214;19.354;2022-12-08T15:59:49;54.35;;;41.22;;
40284;SDS011;25997;50.214;19.354;2022-12-08T16:02:52;82.10;;;53.03;;
40284;SDS011;25997;50.214;19.354;2022-12-08T16:05:56;53.72;;;41.08;;
40284;SDS011;25997;50.214;19.354;2022-12-08T16:09:00;40.85;;;31.00;;
40284;SDS011;25997;50.214;19.354;2022-12-08T16:12:02;32.08;;;27.63;;
40284;SDS011;25997;50.214;19.354;2022-12-08T16:15:24;28.55;;;23.90;;
40284;SDS011;25997;50.214;19.354;2022-12-08T16:18:27;27.92;;;22.75;;
40284;SDS011;25997;50.214;19.354;2022-12-08T16:21:32;31.35;;;25.15;;
40284;SDS011;25997;50.214;19.354;2022-12-08T16:24:35;29.10;;;23.52;;
40284;SDS011;25997;50.214;19.354;2022-12-08T16:27:37;33.35;;;25.05;;
40284;SDS011;25997;50.214;19.354;2022-12-08T16:30:41;42.15;;;29.35;;
40284;SDS011;25997;50.214;19.354;2022-12-08T16:33:44;34.85;;;28.13;;
40284;SDS011;25997;50.214;19.354;2022-12-08T16:36:46;44.67;;;34.60;;
40284;SDS011;25997;50.214;19.354;2022-12-08T16:39:52;48.40;;;36.33;;
40284;SDS011;25997;50.214;19.354;2022-12-08T16:42:56;37.05;;;28.60;;
40284;SDS011;25997;50.214;19.354;2022-12-08T16:46:00;30.25;;;24.92;;
40284;SDS011;25997;50.214;19.354;2022-12-08T16:49:03;30.95;;;25.85;;
40284;SDS011;25997;50.214;19.354;2022-12-08T16:52:08;28.67;;;23.58;;
40284;SDS011;25997;50.214;19.354;2022-12-08T16:55:12;33.50;;;25.45;;
40284;SDS011;25997;50.214;19.354;2022-12-08T16:58:16;37.25;;;32.70;;
40284;SDS011;25997;50.214;19.354;2022-12-08T17:01:21;50.28;;;36.88;;
40284;SDS011;25997;50.214;19.354;2022-12-08T17:04:23;95.15;;;69.35;;
40284;SDS011;25997;50.214;19.354;2022-12-08T17:07:26;203.52;;;141.80;;
40284;SDS011;25997;50.214;19.354;2022-12-08T17:10:29;245.52;;;171.30;;
40284;SDS011;25997;50.214;19.354;2022-12-08T17:13:34;231.35;;;163.40;;
40284;SDS011;25997;50.214;19.354;2022-12-08T17:16:38;197.13;;;145.13;;
40284;SDS011;25997;50.214;19.354;2022-12-08T17:19:41;239.38;;;172.27;;
40284;SDS011;25997;50.214;19.354;2022-12-08T17:22:43;214.98;;;148.68;;
40284;SDS011;25997;50.214;19.354;2022-12-08T17:25:55;167.38;;;121.65;;
40284;SDS011;25997;50.214;19.354;2022-12-08T17:28:59;101.68;;;80.07;;
40284;SDS011;25997;50.214;19.354;2022-12-08T17:32:04;108.82;;;82.15;;
40284;SDS011;25997;50.214;19.354;2022-12-08T17:35:07;118.97;;;88.47;;
40284;SDS011;25997;50.214;19.354;2022-12-08T17:38:10;107.85;;;77.72;;
40284;SDS011;25997;50.214;19.354;2022-12-08T17:41:13;77.78;;;57.70;;
40284;SDS011;25997;50.214;19.354;2022-12-08T17:44:16;79.35;;;59.45;;
40284;SDS011;25997;50.214;19.354;2022-12-08T17:47:21;86.32;;;69.68;;
40284;SDS011;25997;50.214;19.354;2022-12-08T17:50:24;141.95;;;106.80;;
40284;SDS011;25997;50.214;19.354;2022-12-08T17:53:26;163.20;;;124.43;;
40284;SDS011;25997;50.214;19.354;2022-12-08T17:56:29;116.40;;;90.45;;
40284;SDS011;25997;50.214;19.354;2022-12-08T17:59:31;121.20;;;95.78;;